sensor_id;sensor_type;location;lat;lon;timestamp;temperature;humidity
72905;DHT22;61048;52.162;4.516;2023-03-01T00:00:54;13.30;56.70
72905;DHT22;61048;52.162;4.516;2023-03-01T00:03:26;13.30;56.70
72905;DHT22;61048;52.162;4.516;2023-03-01T00:05:53;13.30;56.70
72905;DHT22;61048;52.162;4.516;2023-03-01T00:08:20;13.30;56.70
72905;DHT22;61048;52.162;4.516;2023-03-01T00:10:47;13.30;56.60
72905;DHT22;61048;52.162;4.516;2023-03-01T00:13:14;13.30;56.80
72905;DHT22;61048;52.162;4.516;2023-03-01T00:15:42;13.30;56.70
72905;DHT22;61048;52.162;4.516;2023-03-01T00:18:09;13.30;56.80
72905;DHT22;61048;52.162;4.516;2023-03-01T00:20:36;13.30;56.80
72905;DHT22;61048;52.162;4.516;2023-03-01T00:23:02;13.30;56.70
72905;DHT22;61048;52.162;4.516;2023-03-01T00:25:29;13.30;56.70
72905;DHT22;61048;52.162;4.516;2023-03-01T00:27:56;13.30;56.70
72905;DHT22;61048;52.162;4.516;2023-03-01T00:30:23;13.30;56.70
72905;DHT22;61048;52.162;4.516;2023-03-01T00:32:51;13.20;56.70
72905;DHT22;61048;52.162;4.516;2023-03-01T00:35:18;13.30;56.70
72905;DHT22;61048;52.162;4.516;2023-03-01T00:37:45;13.30;56.60
72905;DHT22;61048;52.162;4.516;2023-03-01T00:40:12;13.30;56.70
72905;DHT22;61048;52.162;4.516;2023-03-01T00:42:41;13.30;56.70
72905;DHT22;61048;52.162;4.516;2023-03-01T00:45:09;13.30;56.70
72905;DHT22;61048;52.162;4.516;2023-03-01T00:47:36;13.20;56.80
72905;DHT22;61048;52.162;4.516;2023-03-01T00:50:05;13.30;56.80
72905;DHT22;61048;52.162;4.516;2023-03-01T00:52:32;13.20;56.70
72905;DHT22;61048;52.162;4.516;2023-03-01T00:54:59;13.30;56.80
72905;DHT22;61048;52.162;4.516;2023-03-01T00:57:26;13.20;56.80
72905;DHT22;61048;52.162;4.516;2023-03-01T00:59:53;13.20;56.70
72905;DHT22;61048;52.162;4.516;2023-03-01T01:02:20;13.20;56.70
72905;DHT22;61048;52.162;4.516;2023-03-01T01:04:47;13.20;56.80
72905;DHT22;61048;52.162;4.516;2023-03-01T01:07:15;13.20;56.70
72905;DHT22;61048;52.162;4.516;2023-03-01T01:09:42;13.20;56.80
72905;DHT22;61048;52.162;4.516;2023-03-01T01:12:09;13.20;56.60
72905;DHT22;61048;52.162;4.516;2023-03-01T01:14:36;13.20;56.80
72905;DHT22;61048;52.162;4.516;2023-03-01T01:17:03;13.20;56.80
72905;DHT22;61048;52.162;4.516;2023-03-01T01:19:30;13.20;56.70
72905;DHT22;61048;52.162;4.516;2023-03-01T01:21:57;13.20;56.80
72905;DHT22;61048;52.162;4.516;2023-03-01T01:24:25;13.20;56.80
72905;DHT22;61048;52.162;4.516;2023-03-01T01:26:52;13.20;56.70
72905;DHT22;61048;52.162;4.516;2023-03-01T01:29:19;13.20;56.90
72905;DHT22;61048;52.162;4.516;2023-03-01T01:31:46;13.20;56.70
72905;DHT22;61048;52.162;4.516;2023-03-01T01:34:14;13.20;56.70
72905;DHT22;61048;52.162;4.516;2023-03-01T01:36:42;13.20;56.80
72905;DHT22;61048;52.162;4.516;2023-03-01T01:39:09;13.20;56.80
72905;DHT22;61048;52.162;4.516;2023-03-01T01:41:40;13.20;56.80
72905;DHT22;61048;52.162;4.516;2023-03-01T01:44:14;13.20;56.80
72905;DHT22;61048;52.162;4.516;2023-03-01T01:46:43;13.20;56.80
72905;DHT22;61048;52.162;4.516;2023-03-01T01:49:19;13.20;56.80
72905;DHT22;61048;52.162;4.516;2023-03-01T01:51:51;13.20;56.90
72905;DHT22;61048;52.162;4.516;2023-03-01T01:54:23;13.20;56.80
72905;DHT22;61048;52.162;4.516;2023-03-01T01:56:56;13.10;56.70
72905;DHT22;61048;52.162;4.516;2023-03-01T01:59:24;13.20;56.80
72905;DHT22;61048;52.162;4.516;2023-03-01T02:01:52;13.20;56.80
72905;DHT22;61048;52.162;4.516;2023-03-01T02:04:19;13.10;56.80
72905;DHT22;61048;52.162;4.516;2023-03-01T02:06:51;13.10;56.80
72905;DHT22;61048;52.162;4.516;2023-03-01T02:09:22;13.10;56.90
72905;DHT22;61048;52.162;4.516;2023-03-01T02:11:50;13.10;56.80
72905;DHT22;61048;52.162;4.516;2023-03-01T02:14:19;13.10;56.70
72905;DHT22;61048;52.162;4.516;2023-03-01T02:16:46;13.10;56.70
72905;DHT22;61048;52.162;4.516;2023-03-01T02:19:20;13.10;56.80
72905;DHT22;61048;52.162;4.516;2023-03-01T02:21:55;13.10;56.80
72905;DHT22;61048;52.162;4.516;2023-03-01T02:24:31;13.10;56.80
72905;DHT22;61048;52.162;4.516;2023-03-01T02:27:00;13.10;56.80
72905;DHT22;61048;52.162;4.516;2023-03-01T02:29:29;13.10;56.70
72905;DHT22;61048;52.162;4.516;2023-03-01T02:31:58;13.10;56.70
72905;DHT22;61048;52.162;4.516;2023-03-01T02:34:27;13.10;56.70
72905;DHT22;61048;52.162;4.516;2023-03-01T02:36:57;13.10;56.80
72905;DHT22;61048;52.162;4.516;2023-03-01T02:39:30;13.10;56.70
72905;DHT22;61048;52.162;4.516;2023-03-01T02:41:58;13.10;56.70
72905;DHT22;61048;52.162;4.516;2023-03-01T02:44:25;13.10;56.70
72905;DHT22;61048;52.162;4.516;2023-03-01T02:46:56;13.10;56.70
72905;DHT22;61048;52.162;4.516;2023-03-01T02:49:25;13.10;56.70
72905;DHT22;61048;52.162;4.516;2023-03-01T02:52:17;13.10;56.70
72905;DHT22;61048;52.162;4.516;2023-03-01T02:54:51;13.10;56.80
72905;DHT22;61048;52.162;4.516;2023-03-01T02:57:19;13.10;56.60
72905;DHT22;61048;52.162;4.516;2023-03-01T02:59:48;13.10;56.80
72905;DHT22;61048;52.162;4.516;2023-03-01T03:02:21;13.10;56.70
72905;DHT22;61048;52.162;4.516;2023-03-01T03:05:02;13.10;56.80
72905;DHT22;61048;52.162;4.516;2023-03-01T03:07:32;13.10;56.80
72905;DHT22;61048;52.162;4.516;2023-03-01T03:09:59;13.10;56.70
72905;DHT22;61048;52.162;4.516;2023-03-01T03:12:26;13.10;56.70
72905;DHT22;61048;52.162;4.516;2023-03-01T03:14:53;13.10;56.70
72905;DHT22;61048;52.162;4.516;2023-03-01T03:17:21;13.00;56.70
72905;DHT22;61048;52.162;4.516;2023-03-01T03:19:48;13.10;56.70
72905;DHT22;61048;52.162;4.516;2023-03-01T03:22:15;13.10;56.70
72905;DHT22;61048;52.162;4.516;2023-03-01T03:24:42;13.00;56.60
72905;DHT22;61048;52.162;4.516;2023-03-01T03:27:09;13.00;56.70
72905;DHT22;61048;52.162;4.516;2023-03-01T03:29:36;13.00;56.70
72905;DHT22;61048;52.162;4.516;2023-03-01T03:32:03;13.00;56.60
72905;DHT22;61048;52.162;4.516;2023-03-01T03:34:31;13.00;56.60
72905;DHT22;61048;52.162;4.516;2023-03-01T03:36:58;13.00;56.70
72905;DHT22;61048;52.162;4.516;2023-03-01T03:39:28;13.00;56.60
72905;DHT22;61048;52.162;4.516;2023-03-01T03:42:00;13.00;56.60
72905;DHT22;61048;52.162;4.516;2023-03-01T03:44:28;13.00;56.60
72905;DHT22;61048;52.162;4.516;2023-03-01T03:46:54;13.00;56.60
72905;DHT22;61048;52.162;4.516;2023-03-01T03:49:21;13.00;56.60
72905;DHT22;61048;52.162;4.516;2023-03-01T03:51:50;13.00;56.60
72905;DHT22;61048;52.162;4.516;2023-03-01T03:54:16;13.00;56.70
72905;DHT22;61048;52.162;4.516;2023-03-01T03:56:43;13.00;56.70
72905;DHT22;61048;52.162;4.516;2023-03-01T03:59:10;13.00;56.60
72905;DHT22;61048;52.162;4.516;2023-03-01T04:01:37;13.00;56.60
72905;DHT22;61048;52.162;4.516;2023-03-01T04:04:04;13.00;56.60
72905;DHT22;61048;52.162;4.516;2023-03-01T04:06:33;13.00;56.50
72905;DHT22;61048;52.162;4.516;2023-03-01T04:09:01;13.00;56.60
72905;DHT22;61048;52.162;4.516;2023-03-01T04:11:28;13.00;56.60
72905;DHT22;61048;52.162;4.516;2023-03-01T04:13:57;13.00;56.60
72905;DHT22;61048;52.162;4.516;2023-03-01T04:16:25;13.00;56.60
72905;DHT22;61048;52.162;4.516;2023-03-01T04:18:52;13.00;56.70
72905;DHT22;61048;52.162;4.516;2023-03-01T04:21:20;13.00;56.50
72905;DHT22;61048;52.162;4.516;2023-03-01T04:23:47;12.90;56.60
72905;DHT22;61048;52.162;4.516;2023-03-01T04:26:19;13.00;56.60
72905;DHT22;61048;52.162;4.516;2023-03-01T04:28:46;12.90;56.60
72905;DHT22;61048;52.162;4.516;2023-03-01T04:31:17;13.00;56.60
72905;DHT22;61048;52.162;4.516;2023-03-01T04:33:48;13.00;56.50
72905;DHT22;61048;52.162;4.516;2023-03-01T04:36:17;12.90;56.50
72905;DHT22;61048;52.162;4.516;2023-03-01T04:38:45;12.90;56.50
72905;DHT22;61048;52.162;4.516;2023-03-01T04:41:14;12.90;56.40
72905;DHT22;61048;52.162;4.516;2023-03-01T04:43:43;12.90;56.50
72905;DHT22;61048;52.162;4.516;2023-03-01T04:46:12;12.90;56.60
72905;DHT22;61048;52.162;4.516;2023-03-01T04:48:40;12.90;56.50
72905;DHT22;61048;52.162;4.516;2023-03-01T04:51:07;12.90;56.40
72905;DHT22;61048;52.162;4.516;2023-03-01T04:53:35;12.90;56.40
72905;DHT22;61048;52.162;4.516;2023-03-01T04:56:04;12.90;56.50
72905;DHT22;61048;52.162;4.516;2023-03-01T04:58:31;12.90;56.50
72905;DHT22;61048;52.162;4.516;2023-03-01T05:00:59;12.90;56.60
72905;DHT22;61048;52.162;4.516;2023-03-01T05:03:26;12.90;56.60
72905;DHT22;61048;52.162;4.516;2023-03-01T05:05:54;13.00;56.50
72905;DHT22;61048;52.162;4.516;2023-03-01T05:08:25;12.90;56.50
72905;DHT22;61048;52.162;4.516;2023-03-01T05:10:53;12.90;56.60
72905;DHT22;61048;52.162;4.516;2023-03-01T05:13:21;12.90;56.60
72905;DHT22;61048;52.162;4.516;2023-03-01T05:15:48;12.90;56.50
72905;DHT22;61048;52.162;4.516;2023-03-01T05:18:17;13.00;56.50
72905;DHT22;61048;52.162;4.516;2023-03-01T05:20:44;13.00;56.50
72905;DHT22;61048;52.162;4.516;2023-03-01T05:23:11;13.00;56.50
72905;DHT22;61048;52.162;4.516;2023-03-01T05:25:38;13.00;56.50
72905;DHT22;61048;52.162;4.516;2023-03-01T05:28:09;13.00;56.50
72905;DHT22;61048;52.162;4.516;2023-03-01T05:30:37;13.00;56.50
72905;DHT22;61048;52.162;4.516;2023-03-01T05:33:05;13.00;56.50
72905;DHT22;61048;52.162;4.516;2023-03-01T05:35:40;13.00;56.50
72905;DHT22;61048;52.162;4.516;2023-03-01T05:38:08;13.00;56.50
72905;DHT22;61048;52.162;4.516;2023-03-01T05:40:35;13.00;56.50
72905;DHT22;61048;52.162;4.516;2023-03-01T05:43:02;13.00;56.50
72905;DHT22;61048;52.162;4.516;2023-03-01T05:45:31;13.00;56.50
72905;DHT22;61048;52.162;4.516;2023-03-01T05:47:59;13.00;56.50
72905;DHT22;61048;52.162;4.516;2023-03-01T05:50:27;13.00;56.50
72905;DHT22;61048;52.162;4.516;2023-03-01T05:52:59;13.10;56.50
72905;DHT22;61048;52.162;4.516;2023-03-01T05:55:27;13.10;56.40
72905;DHT22;61048;52.162;4.516;2023-03-01T05:57:54;13.00;56.50
72905;DHT22;61048;52.162;4.516;2023-03-01T06:00:21;13.00;56.50
72905;DHT22;61048;52.162;4.516;2023-03-01T06:02:49;13.10;56.50
72905;DHT22;61048;52.162;4.516;2023-03-01T06:05:17;13.10;56.50
72905;DHT22;61048;52.162;4.516;2023-03-01T06:07:44;13.10;56.40
72905;DHT22;61048;52.162;4.516;2023-03-01T06:10:13;13.10;56.50
72905;DHT22;61048;52.162;4.516;2023-03-01T06:12:41;13.10;56.50
72905;DHT22;61048;52.162;4.516;2023-03-01T06:15:11;13.10;56.60
72905;DHT22;61048;52.162;4.516;2023-03-01T06:17:39;13.10;56.60
72905;DHT22;61048;52.162;4.516;2023-03-01T06:20:08;13.10;56.50
72905;DHT22;61048;52.162;4.516;2023-03-01T06:22:36;13.10;56.50
72905;DHT22;61048;52.162;4.516;2023-03-01T06:25:03;13.10;56.40
72905;DHT22;61048;52.162;4.516;2023-03-01T06:27:32;13.10;56.50
72905;DHT22;61048;52.162;4.516;2023-03-01T06:29:59;13.10;56.50
72905;DHT22;61048;52.162;4.516;2023-03-01T06:32:25;13.10;56.60
72905;DHT22;61048;52.162;4.516;2023-03-01T06:34:52;13.10;56.50
72905;DHT22;61048;52.162;4.516;2023-03-01T06:37:19;13.10;56.50
72905;DHT22;61048;52.162;4.516;2023-03-01T06:39:46;13.10;56.60
72905;DHT22;61048;52.162;4.516;2023-03-01T06:42:14;13.10;56.70
72905;DHT22;61048;52.162;4.516;2023-03-01T06:44:43;13.10;56.50
72905;DHT22;61048;52.162;4.516;2023-03-01T06:47:11;13.10;56.60
72905;DHT22;61048;52.162;4.516;2023-03-01T06:49:38;13.20;56.70
72905;DHT22;61048;52.162;4.516;2023-03-01T06:52:05;13.20;56.60
72905;DHT22;61048;52.162;4.516;2023-03-01T06:54:32;13.20;56.60
72905;DHT22;61048;52.162;4.516;2023-03-01T06:56:58;13.20;56.60
72905;DHT22;61048;52.162;4.516;2023-03-01T06:59:25;13.20;56.60
72905;DHT22;61048;52.162;4.516;2023-03-01T07:01:54;13.20;56.60
72905;DHT22;61048;52.162;4.516;2023-03-01T07:04:20;13.20;56.50
72905;DHT22;61048;52.162;4.516;2023-03-01T07:06:47;13.30;56.50
72905;DHT22;61048;52.162;4.516;2023-03-01T07:09:20;13.30;56.40
72905;DHT22;61048;52.162;4.516;2023-03-01T07:11:47;13.40;56.40
72905;DHT22;61048;52.162;4.516;2023-03-01T07:14:14;13.40;56.30
72905;DHT22;61048;52.162;4.516;2023-03-01T07:16:41;13.40;56.20
72905;DHT22;61048;52.162;4.516;2023-03-01T07:19:10;13.40;56.20
72905;DHT22;61048;52.162;4.516;2023-03-01T07:21:37;13.50;56.00
72905;DHT22;61048;52.162;4.516;2023-03-01T07:24:05;13.50;56.00
72905;DHT22;61048;52.162;4.516;2023-03-01T07:26:32;13.50;55.90
72905;DHT22;61048;52.162;4.516;2023-03-01T07:28:59;13.50;55.80
72905;DHT22;61048;52.162;4.516;2023-03-01T07:31:26;13.60;55.80
72905;DHT22;61048;52.162;4.516;2023-03-01T07:33:54;13.60;55.70
72905;DHT22;61048;52.162;4.516;2023-03-01T07:36:22;13.60;55.70
72905;DHT22;61048;52.162;4.516;2023-03-01T07:38:50;13.60;55.70
72905;DHT22;61048;52.162;4.516;2023-03-01T07:41:17;13.60;55.70
72905;DHT22;61048;52.162;4.516;2023-03-01T07:43:44;13.60;55.60
72905;DHT22;61048;52.162;4.516;2023-03-01T07:46:11;13.60;55.60
72905;DHT22;61048;52.162;4.516;2023-03-01T07:48:38;13.70;55.60
72905;DHT22;61048;52.162;4.516;2023-03-01T07:51:05;13.70;55.60
72905;DHT22;61048;52.162;4.516;2023-03-01T07:53:34;13.70;55.60
72905;DHT22;61048;52.162;4.516;2023-03-01T07:56:03;13.70;55.60
72905;DHT22;61048;52.162;4.516;2023-03-01T07:58:30;13.70;55.50
72905;DHT22;61048;52.162;4.516;2023-03-01T08:01:01;13.70;55.50
72905;DHT22;61048;52.162;4.516;2023-03-01T08:03:28;13.70;55.50
72905;DHT22;61048;52.162;4.516;2023-03-01T08:05:56;13.70;55.50
72905;DHT22;61048;52.162;4.516;2023-03-01T08:08:22;13.70;55.40
72905;DHT22;61048;52.162;4.516;2023-03-01T08:10:51;13.70;55.40
72905;DHT22;61048;52.162;4.516;2023-03-01T08:13:18;13.70;55.40
72905;DHT22;61048;52.162;4.516;2023-03-01T08:15:47;13.70;55.30
72905;DHT22;61048;52.162;4.516;2023-03-01T08:18:14;13.80;55.30
72905;DHT22;61048;52.162;4.516;2023-03-01T08:20:41;13.80;55.20
72905;DHT22;61048;52.162;4.516;2023-03-01T08:23:08;13.80;55.30
72905;DHT22;61048;52.162;4.516;2023-03-01T08:25:35;13.80;55.10
72905;DHT22;61048;52.162;4.516;2023-03-01T08:28:04;13.90;55.00
72905;DHT22;61048;52.162;4.516;2023-03-01T08:30:32;13.90;55.00
72905;DHT22;61048;52.162;4.516;2023-03-01T08:32:58;13.90;54.90
72905;DHT22;61048;52.162;4.516;2023-03-01T08:35:25;14.00;54.80
72905;DHT22;61048;52.162;4.516;2023-03-01T08:37:52;14.00;54.70
72905;DHT22;61048;52.162;4.516;2023-03-01T08:40:19;14.00;54.60
72905;DHT22;61048;52.162;4.516;2023-03-01T08:42:46;14.00;54.60
72905;DHT22;61048;52.162;4.516;2023-03-01T08:45:14;14.00;54.50
72905;DHT22;61048;52.162;4.516;2023-03-01T08:47:43;14.10;54.50
72905;DHT22;61048;52.162;4.516;2023-03-01T08:50:11;14.10;54.30
72905;DHT22;61048;52.162;4.516;2023-03-01T08:52:38;14.10;54.20
72905;DHT22;61048;52.162;4.516;2023-03-01T08:55:06;14.10;54.30
72905;DHT22;61048;52.162;4.516;2023-03-01T08:57:33;14.20;54.20
72905;DHT22;61048;52.162;4.516;2023-03-01T09:00:00;14.20;54.20
72905;DHT22;61048;52.162;4.516;2023-03-01T09:02:28;14.20;54.00
72905;DHT22;61048;52.162;4.516;2023-03-01T09:04:55;14.20;54.00
72905;DHT22;61048;52.162;4.516;2023-03-01T09:07:22;14.20;54.00
72905;DHT22;61048;52.162;4.516;2023-03-01T09:09:53;14.20;54.00
72905;DHT22;61048;52.162;4.516;2023-03-01T09:12:21;14.30;53.90
72905;DHT22;61048;52.162;4.516;2023-03-01T09:14:48;14.30;53.90
72905;DHT22;61048;52.162;4.516;2023-03-01T09:17:15;14.30;53.80
72905;DHT22;61048;52.162;4.516;2023-03-01T09:19:43;14.30;53.80
72905;DHT22;61048;52.162;4.516;2023-03-01T09:22:10;14.30;53.80
72905;DHT22;61048;52.162;4.516;2023-03-01T09:24:37;14.30;53.90
72905;DHT22;61048;52.162;4.516;2023-03-01T09:27:05;14.30;53.70
72905;DHT22;61048;52.162;4.516;2023-03-01T09:29:34;14.30;53.70
72905;DHT22;61048;52.162;4.516;2023-03-01T09:32:01;14.40;53.60
72905;DHT22;61048;52.162;4.516;2023-03-01T09:34:28;14.30;53.40
72905;DHT22;61048;52.162;4.516;2023-03-01T09:36:58;14.30;53.50
72905;DHT22;61048;52.162;4.516;2023-03-01T09:39:25;14.30;53.50
72905;DHT22;61048;52.162;4.516;2023-03-01T09:42:00;14.30;53.40
72905;DHT22;61048;52.162;4.516;2023-03-01T09:44:32;14.30;53.50
72905;DHT22;61048;52.162;4.516;2023-03-01T09:47:02;14.30;53.40
72905;DHT22;61048;52.162;4.516;2023-03-01T09:49:31;14.40;53.50
72905;DHT22;61048;52.162;4.516;2023-03-01T09:52:17;14.40;53.50
72905;DHT22;61048;52.162;4.516;2023-03-01T09:54:50;14.30;53.40
72905;DHT22;61048;52.162;4.516;2023-03-01T09:57:26;14.30;53.50
72905;DHT22;61048;52.162;4.516;2023-03-01T10:00:08;14.30;53.50
72905;DHT22;61048;52.162;4.516;2023-03-01T10:02:42;14.40;53.50
72905;DHT22;61048;52.162;4.516;2023-03-01T10:05:15;14.30;53.60
72905;DHT22;61048;52.162;4.516;2023-03-01T10:07:53;14.30;53.60
72905;DHT22;61048;52.162;4.516;2023-03-01T10:10:29;14.30;53.70
72905;DHT22;61048;52.162;4.516;2023-03-01T10:13:00;14.30;53.70
72905;DHT22;61048;52.162;4.516;2023-03-01T10:15:34;14.30;53.80
72905;DHT22;61048;52.162;4.516;2023-03-01T10:18:06;14.30;53.80
72905;DHT22;61048;52.162;4.516;2023-03-01T10:20:43;14.30;53.80
72905;DHT22;61048;52.162;4.516;2023-03-01T10:23:13;14.30;53.80
72905;DHT22;61048;52.162;4.516;2023-03-01T10:25:47;14.30;53.80
72905;DHT22;61048;52.162;4.516;2023-03-01T10:28:25;14.30;53.80
72905;DHT22;61048;52.162;4.516;2023-03-01T10:30:54;14.30;53.80
72905;DHT22;61048;52.162;4.516;2023-03-01T10:33:24;14.30;53.80
72905;DHT22;61048;52.162;4.516;2023-03-01T10:35:51;14.30;53.80
72905;DHT22;61048;52.162;4.516;2023-03-01T10:38:21;14.30;53.80
72905;DHT22;61048;52.162;4.516;2023-03-01T10:40:53;14.30;53.80
72905;DHT22;61048;52.162;4.516;2023-03-01T10:43:20;14.30;53.80
72905;DHT22;61048;52.162;4.516;2023-03-01T10:45:48;14.30;53.90
72905;DHT22;61048;52.162;4.516;2023-03-01T10:48:16;14.30;53.80
72905;DHT22;61048;52.162;4.516;2023-03-01T10:50:46;14.30;53.90
72905;DHT22;61048;52.162;4.516;2023-03-01T10:53:26;14.30;53.80
72905;DHT22;61048;52.162;4.516;2023-03-01T10:56:01;14.30;53.80
72905;DHT22;61048;52.162;4.516;2023-03-01T10:58:29;14.30;53.80
72905;DHT22;61048;52.162;4.516;2023-03-01T11:00:58;14.30;53.80
72905;DHT22;61048;52.162;4.516;2023-03-01T11:03:28;14.30;53.80
72905;DHT22;61048;52.162;4.516;2023-03-01T11:06:04;14.30;53.80
72905;DHT22;61048;52.162;4.516;2023-03-01T11:08:39;14.30;53.80
72905;DHT22;61048;52.162;4.516;2023-03-01T11:13:59;14.30;53.70
72905;DHT22;61048;52.162;4.516;2023-03-01T11:16:33;14.30;53.70
72905;DHT22;61048;52.162;4.516;2023-03-01T11:19:13;14.30;53.80
72905;DHT22;61048;52.162;4.516;2023-03-01T11:21:44;14.30;53.80
72905;DHT22;61048;52.162;4.516;2023-03-01T11:24:17;14.30;53.80
72905;DHT22;61048;52.162;4.516;2023-03-01T11:26:47;14.30;53.80
72905;DHT22;61048;52.162;4.516;2023-03-01T11:29:25;14.30;53.80
72905;DHT22;61048;52.162;4.516;2023-03-01T11:31:55;14.30;53.80
72905;DHT22;61048;52.162;4.516;2023-03-01T11:34:33;14.30;53.80
72905;DHT22;61048;52.162;4.516;2023-03-01T11:37:07;14.30;53.70
72905;DHT22;61048;52.162;4.516;2023-03-01T11:39:42;14.30;53.70
72905;DHT22;61048;52.162;4.516;2023-03-01T11:42:14;14.30;53.90
72905;DHT22;61048;52.162;4.516;2023-03-01T11:44:43;14.30;53.80
72905;DHT22;61048;52.162;4.516;2023-03-01T11:47:23;14.30;53.50
72905;DHT22;61048;52.162;4.516;2023-03-01T11:50:06;14.20;53.50
72905;DHT22;61048;52.162;4.516;2023-03-01T11:52:45;14.20;53.50
72905;DHT22;61048;52.162;4.516;2023-03-01T11:55:28;14.20;52.90
72905;DHT22;61048;52.162;4.516;2023-03-01T12:03:51;14.10;51.20
72905;DHT22;61048;52.162;4.516;2023-03-01T12:06:42;14.10;50.30
72905;DHT22;61048;52.162;4.516;2023-03-01T12:09:35;14.00;50.40
72905;DHT22;61048;52.162;4.516;2023-03-01T12:12:17;14.00;50.50
72905;DHT22;61048;52.162;4.516;2023-03-01T12:18:30;14.00;49.70
72905;DHT22;61048;52.162;4.516;2023-03-01T12:21:08;14.00;49.50
72905;DHT22;61048;52.162;4.516;2023-03-01T12:24:10;14.00;50.30
72905;DHT22;61048;52.162;4.516;2023-03-01T12:26:48;14.00;49.90
72905;DHT22;61048;52.162;4.516;2023-03-01T12:29:25;14.00;49.70
72905;DHT22;61048;52.162;4.516;2023-03-01T12:37:56;13.90;50.10
72905;DHT22;61048;52.162;4.516;2023-03-01T12:40:37;13.90;49.90
72905;DHT22;61048;52.162;4.516;2023-03-01T12:43:27;13.90;49.80
72905;DHT22;61048;52.162;4.516;2023-03-01T12:46:15;13.90;49.40
72905;DHT22;61048;52.162;4.516;2023-03-01T12:48:53;13.90;49.50
72905;DHT22;61048;52.162;4.516;2023-03-01T12:51:24;13.90;49.30
72905;DHT22;61048;52.162;4.516;2023-03-01T12:53:55;13.90;48.90
72905;DHT22;61048;52.162;4.516;2023-03-01T12:56:25;13.90;49.10
72905;DHT22;61048;52.162;4.516;2023-03-01T12:59:00;13.90;48.90
72905;DHT22;61048;52.162;4.516;2023-03-01T13:01:45;13.90;48.70
72905;DHT22;61048;52.162;4.516;2023-03-01T13:04:21;13.80;48.70
72905;DHT22;61048;52.162;4.516;2023-03-01T13:07:02;13.80;48.60
72905;DHT22;61048;52.162;4.516;2023-03-01T13:09:35;13.80;48.40
72905;DHT22;61048;52.162;4.516;2023-03-01T13:15:26;13.80;48.60
72905;DHT22;61048;52.162;4.516;2023-03-01T13:17:56;13.80;48.70
72905;DHT22;61048;52.162;4.516;2023-03-01T13:20:26;13.80;48.30
72905;DHT22;61048;52.162;4.516;2023-03-01T13:23:06;13.80;48.40
72905;DHT22;61048;52.162;4.516;2023-03-01T13:25:34;13.80;48.40
72905;DHT22;61048;52.162;4.516;2023-03-01T13:31:59;13.80;48.70
72905;DHT22;61048;52.162;4.516;2023-03-01T13:34:59;13.80;48.50
72905;DHT22;61048;52.162;4.516;2023-03-01T13:37:32;13.80;48.90
72905;DHT22;61048;52.162;4.516;2023-03-01T13:40:02;13.90;48.80
72905;DHT22;61048;52.162;4.516;2023-03-01T13:42:42;13.90;48.70
72905;DHT22;61048;52.162;4.516;2023-03-01T13:45:24;13.90;48.50
72905;DHT22;61048;52.162;4.516;2023-03-01T13:47:58;13.80;48.00
72905;DHT22;61048;52.162;4.516;2023-03-01T13:50:33;13.80;48.10
72905;DHT22;61048;52.162;4.516;2023-03-01T13:53:03;13.80;48.10
72905;DHT22;61048;52.162;4.516;2023-03-01T13:55:37;13.80;48.50
72905;DHT22;61048;52.162;4.516;2023-03-01T13:58:18;13.80;48.40
72905;DHT22;61048;52.162;4.516;2023-03-01T14:00:45;13.80;48.10
72905;DHT22;61048;52.162;4.516;2023-03-01T14:03:14;13.80;48.30
72905;DHT22;61048;52.162;4.516;2023-03-01T14:05:58;13.80;48.20
72905;DHT22;61048;52.162;4.516;2023-03-01T14:08:27;13.80;47.80
72905;DHT22;61048;52.162;4.516;2023-03-01T14:14:14;13.80;47.80
72905;DHT22;61048;52.162;4.516;2023-03-01T14:16:52;13.80;48.10
72905;DHT22;61048;52.162;4.516;2023-03-01T14:19:23;13.80;48.20
72905;DHT22;61048;52.162;4.516;2023-03-01T14:22:04;13.80;48.40
72905;DHT22;61048;52.162;4.516;2023-03-01T14:24:35;13.80;48.10
72905;DHT22;61048;52.162;4.516;2023-03-01T14:27:08;13.80;48.30
72905;DHT22;61048;52.162;4.516;2023-03-01T14:29:37;13.80;48.30
72905;DHT22;61048;52.162;4.516;2023-03-01T14:32:10;13.80;48.30
72905;DHT22;61048;52.162;4.516;2023-03-01T14:34:43;13.80;48.20
72905;DHT22;61048;52.162;4.516;2023-03-01T14:37:17;13.80;48.10
72905;DHT22;61048;52.162;4.516;2023-03-01T14:39:45;13.80;48.40
72905;DHT22;61048;52.162;4.516;2023-03-01T14:42:12;13.80;48.30
72905;DHT22;61048;52.162;4.516;2023-03-01T14:44:41;13.80;48.30
72905;DHT22;61048;52.162;4.516;2023-03-01T14:47:12;13.80;48.40
72905;DHT22;61048;52.162;4.516;2023-03-01T14:49:41;13.90;48.10
72905;DHT22;61048;52.162;4.516;2023-03-01T14:52:19;13.80;48.30
72905;DHT22;61048;52.162;4.516;2023-03-01T14:54:48;13.80;48.20
72905;DHT22;61048;52.162;4.516;2023-03-01T14:57:17;13.80;47.70
72905;DHT22;61048;52.162;4.516;2023-03-01T14:59:45;13.80;47.50
72905;DHT22;61048;52.162;4.516;2023-03-01T15:02:16;13.80;47.60
72905;DHT22;61048;52.162;4.516;2023-03-01T15:04:47;13.80;47.80
72905;DHT22;61048;52.162;4.516;2023-03-01T15:07:15;13.80;47.90
72905;DHT22;61048;52.162;4.516;2023-03-01T15:09:44;13.80;48.00
72905;DHT22;61048;52.162;4.516;2023-03-01T15:12:34;13.90;48.10
72905;DHT22;61048;52.162;4.516;2023-03-01T15:15:32;13.90;47.90
72905;DHT22;61048;52.162;4.516;2023-03-01T15:18:01;13.90;48.20
72905;DHT22;61048;52.162;4.516;2023-03-01T15:20:30;13.90;48.20
72905;DHT22;61048;52.162;4.516;2023-03-01T15:23:01;13.90;48.20
72905;DHT22;61048;52.162;4.516;2023-03-01T15:25:31;13.90;48.30
72905;DHT22;61048;52.162;4.516;2023-03-01T15:28:00;13.90;48.00
72905;DHT22;61048;52.162;4.516;2023-03-01T15:30:30;13.90;47.90
72905;DHT22;61048;52.162;4.516;2023-03-01T15:33:27;13.90;47.90
72905;DHT22;61048;52.162;4.516;2023-03-01T15:35:56;13.90;48.10
72905;DHT22;61048;52.162;4.516;2023-03-01T15:38:30;13.90;48.10
72905;DHT22;61048;52.162;4.516;2023-03-01T15:41:01;13.90;47.70
72905;DHT22;61048;52.162;4.516;2023-03-01T15:43:41;13.80;48.10
72905;DHT22;61048;52.162;4.516;2023-03-01T15:46:23;13.90;48.20
72905;DHT22;61048;52.162;4.516;2023-03-01T15:48:53;13.80;47.90
72905;DHT22;61048;52.162;4.516;2023-03-01T15:51:27;13.80;47.90
72905;DHT22;61048;52.162;4.516;2023-03-01T15:53:55;13.80;47.90
72905;DHT22;61048;52.162;4.516;2023-03-01T15:56:24;13.80;48.00
72905;DHT22;61048;52.162;4.516;2023-03-01T15:58:51;13.80;48.40
72905;DHT22;61048;52.162;4.516;2023-03-01T16:01:18;13.80;48.50
72905;DHT22;61048;52.162;4.516;2023-03-01T16:03:45;13.80;48.40
72905;DHT22;61048;52.162;4.516;2023-03-01T16:06:12;13.80;48.30
72905;DHT22;61048;52.162;4.516;2023-03-01T16:08:39;13.80;48.50
72905;DHT22;61048;52.162;4.516;2023-03-01T16:11:13;13.80;48.40
72905;DHT22;61048;52.162;4.516;2023-03-01T16:13:42;13.80;48.50
72905;DHT22;61048;52.162;4.516;2023-03-01T16:16:10;13.80;48.10
72905;DHT22;61048;52.162;4.516;2023-03-01T16:18:41;13.80;47.80